createdAt,value
2022-07-28T00:01:53.138Z,89.30
2022-07-28T00:04:22.040Z,89.52
2022-07-28T00:06:52.066Z,90.47
2022-07-28T00:09:22.528Z,89.09
2022-07-28T00:11:54.955Z,90.09
2022-07-28T00:14:24.300Z,90.50
2022-07-28T00:16:53.445Z,91.73
2022-07-28T00:19:22.407Z,92.77
2022-07-28T00:21:51.235Z,92.11
2022-07-28T00:24:23.445Z,93.83
2022-07-28T00:26:52.449Z,93.01
2022-07-28T00:29:21.547Z,92.75
2022-07-28T00:31:50.458Z,94.00
2022-07-28T00:34:19.625Z,93.35
2022-07-28T00:36:55.619Z,93.21
2022-07-28T00:39:25.962Z,93.68
2022-07-28T00:41:55.005Z,93.46
2022-07-28T00:44:23.821Z,94.65
2022-07-28T00:46:52.783Z,97.06
2022-07-28T00:49:23.005Z,95.71
2022-07-28T00:51:55.324Z,97.20
2022-07-28T00:54:25.684Z,96.89
2022-07-28T00:56:54.658Z,96.82
2022-07-28T00:59:23.560Z,98.51
2022-07-28T01:01:53.304Z,98.13
2022-07-28T01:04:24.301Z,99.64
2022-07-28T01:07:12.691Z,100.00
2022-07-28T01:09:57.697Z,100.00
2022-07-28T01:12:43.207Z,100.00
2022-07-28T01:15:24.254Z,100.00
2022-07-28T01:18:06.509Z,100.00
2022-07-28T01:20:42.931Z,100.00
2022-07-28T01:23:49.733Z,100.00
2022-07-28T01:26:54.766Z,100.00
2022-07-28T01:29:53.138Z,98.89
2022-07-28T01:32:28.420Z,98.30
2022-07-28T01:35:06.501Z,99.82
2022-07-28T01:37:43.574Z,100.00
2022-07-28T01:40:18.691Z,100.00
2022-07-28T01:42:53.041Z,100.00
2022-07-28T01:45:23.753Z,100.00
2022-07-28T01:47:58.143Z,100.00
2022-07-28T01:50:30.951Z,100.00
2022-07-28T01:53:01.747Z,100.00
2022-07-28T01:55:37.280Z,100.00
2022-07-28T01:58:08.121Z,100.00
2022-07-28T02:00:38.513Z,100.00
2022-07-28T02:03:11.719Z,100.00
2022-07-28T02:05:44.218Z,100.00
2022-07-28T02:08:17.023Z,100.00
2022-07-28T02:11:09.712Z,100.00
2022-07-28T02:13:40.430Z,99.58
2022-07-28T02:16:12.999Z,100.00
2022-07-28T02:18:46.367Z,100.00
2022-07-28T02:21:17.861Z,100.00
2022-07-28T02:23:51.307Z,100.00
2022-07-28T02:26:29.277Z,100.00
2022-07-28T02:29:02.537Z,100.00
2022-07-28T02:31:53.611Z,100.00
2022-07-28T02:34:28.897Z,100.00
2022-07-28T02:37:03.282Z,100.00
2022-07-28T02:39:41.691Z,100.00
2022-07-28T02:42:16.409Z,100.00
2022-07-28T02:44:53.176Z,100.00
2022-07-28T02:47:27.292Z,100.00
2022-07-28T02:50:03.073Z,100.00
2022-07-28T02:52:33.954Z,100.00
2022-07-28T02:55:05.559Z,100.00
2022-07-28T02:57:35.949Z,100.00
2022-07-28T03:00:06.324Z,100.00
2022-07-28T03:02:36.741Z,100.00
2022-07-28T03:05:11.510Z,100.00
2022-07-28T03:07:49.206Z,100.00
2022-07-28T03:10:34.043Z,100.00
2022-07-28T03:13:06.823Z,100.00
2022-07-28T03:15:37.249Z,100.00
2022-07-28T03:18:07.886Z,100.00
2022-07-28T03:20:38.188Z,100.00
2022-07-28T03:23:08.153Z,100.00
2022-07-28T03:25:47.518Z,100.00
2022-07-28T03:28:22.471Z,100.00
2022-07-28T03:30:58.402Z,100.00
2022-07-28T03:33:30.630Z,100.00
2022-07-28T03:36:13.136Z,100.00
2022-07-28T03:38:49.610Z,100.00
2022-07-28T03:41:21.313Z,100.00
2022-07-28T03:43:51.908Z,100.00
2022-07-28T03:46:21.921Z,100.00
2022-07-28T03:48:50.987Z,100.00
2022-07-28T03:51:21.493Z,100.00
2022-07-28T03:53:50.819Z,100.00
2022-07-28T03:56:19.690Z,100.00
2022-07-28T03:58:48.657Z,100.00
2022-07-28T04:01:18.379Z,100.00
2022-07-28T04:03:47.405Z,100.00
2022-07-28T04:06:16.601Z,100.00
2022-07-28T04:08:48.492Z,100.00
2022-07-28T04:11:17.435Z,100.00
2022-07-28T04:13:46.430Z,100.00
2022-07-28T04:16:15.447Z,100.00
2022-07-28T04:18:44.464Z,100.00
2022-07-28T04:21:13.658Z,100.00
2022-07-28T04:23:42.607Z,100.00
2022-07-28T04:26:13.485Z,100.00
2022-07-28T04:28:42.478Z,100.00
2022-07-28T04:31:11.590Z,100.00
2022-07-28T04:33:41.284Z,100.00
2022-07-28T04:36:10.453Z,100.00
2022-07-28T04:38:39.586Z,100.00
2022-07-28T04:41:08.564Z,100.00
2022-07-28T04:43:38.906Z,100.00
2022-07-28T04:46:09.920Z,100.00
2022-07-28T04:48:42.366Z,100.00
2022-07-28T04:51:11.761Z,100.00
2022-07-28T04:53:41.044Z,100.00
2022-07-28T04:56:10.115Z,100.00
2022-07-28T04:58:40.401Z,100.00
2022-07-28T05:01:12.271Z,100.00
2022-07-28T05:03:41.238Z,100.00
2022-07-28T05:06:10.347Z,100.00
2022-07-28T05:08:39.279Z,100.00
2022-07-28T05:11:08.139Z,100.00
2022-07-28T05:13:37.122Z,100.00
2022-07-28T05:16:08.795Z,100.00
2022-07-28T05:18:37.798Z,100.00
2022-07-28T05:21:06.695Z,100.00
2022-07-28T05:23:35.660Z,100.00
2022-07-28T05:26:07.147Z,100.00
2022-07-28T05:28:36.280Z,100.00
2022-07-28T05:31:07.968Z,100.00
2022-07-28T05:33:37.672Z,100.00
2022-07-28T05:36:07.610Z,100.00
2022-07-28T05:38:36.596Z,100.00
2022-07-28T05:41:06.604Z,100.00
2022-07-28T05:43:37.974Z,100.00
2022-07-28T05:46:08.438Z,100.00
2022-07-28T05:48:37.444Z,100.00
2022-07-28T05:51:07.697Z,100.00
2022-07-28T05:53:36.580Z,100.00
2022-07-28T05:56:06.133Z,100.00
2022-07-28T05:58:35.043Z,100.00
2022-07-28T06:01:04.570Z,98.60
2022-07-28T06:03:39.970Z,94.78
2022-07-28T06:06:15.611Z,93.22
2022-07-28T06:08:47.339Z,90.89
2022-07-28T06:11:22.184Z,87.72
2022-07-28T06:13:53.248Z,89.34
2022-07-28T06:16:23.834Z,89.60
2022-07-28T06:18:54.332Z,87.08
2022-07-28T06:21:25.219Z,85.02
2022-07-28T06:23:54.101Z,82.44
2022-07-28T06:26:23.787Z,81.34
2022-07-28T06:28:53.538Z,78.67
2022-07-28T06:31:22.560Z,79.24
2022-07-28T06:33:52.752Z,79.86
2022-07-28T06:36:21.732Z,77.82
2022-07-28T06:38:50.565Z,74.85
2022-07-28T06:41:19.546Z,73.83
2022-07-28T06:43:48.489Z,73.22
2022-07-28T06:46:19.568Z,73.43
2022-07-28T06:48:49.665Z,70.56
2022-07-28T06:51:20.251Z,69.19
2022-07-28T06:53:49.593Z,68.20
2022-07-28T06:56:19.660Z,68.36
2022-07-28T06:58:50.917Z,68.38
2022-07-28T07:01:20.121Z,65.99
2022-07-28T07:03:49.193Z,63.63
2022-07-28T07:06:19.788Z,64.51
2022-07-28T07:08:48.865Z,63.32
2022-07-28T07:11:17.811Z,62.11
2022-07-28T07:13:47.449Z,60.29
2022-07-28T07:16:16.651Z,60.48
2022-07-28T07:18:45.980Z,59.55
2022-07-28T07:21:14.986Z,58.52
2022-07-28T07:23:45.345Z,58.71
2022-07-28T07:26:14.502Z,59.71
2022-07-28T07:28:43.426Z,55.91
2022-07-28T07:31:12.552Z,58.29
2022-07-28T07:33:41.619Z,56.52
2022-07-28T07:36:10.623Z,56.35
2022-07-28T07:38:39.672Z,56.10
2022-07-28T07:41:09.946Z,55.62
2022-07-28T07:43:42.368Z,56.05
2022-07-28T07:46:15.321Z,55.87
2022-07-28T07:48:44.516Z,56.48
2022-07-28T07:51:15.675Z,54.37
2022-07-28T07:53:44.814Z,54.46
2022-07-28T07:56:18.286Z,53.80
2022-07-28T07:58:47.211Z,53.51
2022-07-28T08:01:16.369Z,49.64
2022-07-28T08:03:46.276Z,51.82
2022-07-28T08:06:26.253Z,52.10
2022-07-28T08:08:56.277Z,48.73
2022-07-28T08:11:26.499Z,49.39
2022-07-28T08:13:55.441Z,48.56
2022-07-28T08:16:24.622Z,48.21
2022-07-28T08:18:53.794Z,47.05
2022-07-28T08:21:22.722Z,48.66
2022-07-28T08:23:51.621Z,47.80
2022-07-28T08:26:20.588Z,47.89
2022-07-28T08:28:50.879Z,43.52
2022-07-28T08:31:22.000Z,45.71
2022-07-28T08:33:53.455Z,46.59
2022-07-28T08:36:23.685Z,43.96
2022-07-28T08:38:52.698Z,44.33
2022-07-28T08:41:33.603Z,45.19
2022-07-28T08:44:06.509Z,41.55
2022-07-28T08:46:37.234Z,44.13
2022-07-28T08:49:10.448Z,43.71
2022-07-28T08:51:42.762Z,42.64
2022-07-28T08:54:17.522Z,41.27
2022-07-28T08:56:49.134Z,42.34
2022-07-28T08:59:19.901Z,39.69
2022-07-28T09:01:54.030Z,39.59
2022-07-28T09:04:27.448Z,40.01
2022-07-28T09:07:00.322Z,38.31
2022-07-28T09:09:29.833Z,37.99
2022-07-28T09:11:59.094Z,38.54
2022-07-28T09:14:29.500Z,37.32
2022-07-28T09:17:01.632Z,36.75
2022-07-28T09:19:34.270Z,37.06
2022-07-28T09:22:05.642Z,36.52
2022-07-28T09:24:40.574Z,35.92
2022-07-28T09:27:12.522Z,35.42
2022-07-28T09:29:47.214Z,35.17
2022-07-28T09:32:20.157Z,33.66
2022-07-28T09:34:51.679Z,33.73
2022-07-28T09:37:27.158Z,35.21
2022-07-28T09:39:59.197Z,34.56
2022-07-28T09:42:45.557Z,36.74
2022-07-28T09:45:24.232Z,33.86
2022-07-28T09:48:11.403Z,34.06
2022-07-28T09:50:42.286Z,33.12
2022-07-28T09:53:28.226Z,33.36
2022-07-28T09:56:00.908Z,32.04
2022-07-28T09:58:30.769Z,32.72
2022-07-28T10:01:13.322Z,33.33
2022-07-28T10:03:44.254Z,32.79
2022-07-28T10:06:16.563Z,32.46
2022-07-28T10:08:47.702Z,31.53
2022-07-28T10:11:19.025Z,31.21
2022-07-28T10:13:55.284Z,32.90
2022-07-28T10:16:27.432Z,32.26
2022-07-28T10:18:57.469Z,31.20
2022-07-28T10:21:28.310Z,31.87
2022-07-28T10:23:59.607Z,31.67
2022-07-28T10:26:31.146Z,31.35
2022-07-28T10:29:04.657Z,32.31
2022-07-28T10:31:42.697Z,32.12
2022-07-28T10:34:18.772Z,30.64
2022-07-28T10:36:56.611Z,31.34
2022-07-28T10:39:30.174Z,31.00
2022-07-28T10:42:06.174Z,31.18
2022-07-28T10:44:35.839Z,31.13
2022-07-28T10:47:10.069Z,30.28
2022-07-28T10:49:50.453Z,29.18
2022-07-28T10:52:47.155Z,28.06
2022-07-28T10:55:21.488Z,31.79
2022-07-28T10:58:01.979Z,30.00
2022-07-28T11:00:59.933Z,30.55
2022-07-28T11:03:44.190Z,30.96
2022-07-28T11:06:30.902Z,30.87
2022-07-28T11:09:01.747Z,30.39
2022-07-28T11:11:59.078Z,28.19
2022-07-28T11:14:37.511Z,29.99
2022-07-28T11:17:33.185Z,32.92
2022-07-28T11:20:16.733Z,29.95
2022-07-28T11:22:53.863Z,30.26
2022-07-28T11:25:23.273Z,29.71
2022-07-28T11:28:05.702Z,30.20
2022-07-28T11:30:55.732Z,30.12
2022-07-28T11:33:27.491Z,28.88
2022-07-28T11:36:00.600Z,28.34
2022-07-28T11:38:31.384Z,27.58
2022-07-28T11:41:00.489Z,26.82
2022-07-28T11:43:36.343Z,27.94
2022-07-28T11:46:37.620Z,27.92
2022-07-28T11:49:22.084Z,27.46
2022-07-28T11:52:26.210Z,29.88
2022-07-28T11:54:57.759Z,28.01
2022-07-28T11:57:29.225Z,28.59
2022-07-28T12:00:02.891Z,28.11
2022-07-28T12:02:34.237Z,29.19
2022-07-28T12:05:14.271Z,28.43
2022-07-28T12:07:48.281Z,28.56
2022-07-28T12:10:54.490Z,28.88
2022-07-28T12:13:28.764Z,27.10
2022-07-28T12:15:58.313Z,28.02
2022-07-28T12:18:27.527Z,28.19
2022-07-28T12:20:58.562Z,28.66
2022-07-28T12:23:38.834Z,27.29
2022-07-28T12:26:31.809Z,28.44
2022-07-28T12:29:08.604Z,28.07
2022-07-28T12:31:51.734Z,27.25
2022-07-28T12:34:28.475Z,27.55
2022-07-28T12:37:01.996Z,27.07
2022-07-28T12:39:34.441Z,28.23
2022-07-28T12:42:08.654Z,27.43
2022-07-28T12:44:39.602Z,28.54
2022-07-28T12:47:12.242Z,28.17
2022-07-28T12:49:44.448Z,28.46
2022-07-28T12:52:18.431Z,28.30
2022-07-28T12:54:55.625Z,29.07
2022-07-28T12:57:51.654Z,29.61
2022-07-28T13:00:23.904Z,28.77
2022-07-28T13:02:55.284Z,28.88
2022-07-28T13:05:50.594Z,28.58
2022-07-28T13:08:20.780Z,28.32
2022-07-28T13:10:56.970Z,28.86
2022-07-28T13:13:28.078Z,30.67
2022-07-28T13:16:13.797Z,30.74
2022-07-28T13:18:43.945Z,29.35
2022-07-28T13:21:13.212Z,30.79
2022-07-28T13:23:42.474Z,31.74
2022-07-28T13:26:13.158Z,29.37
2022-07-28T13:28:42.575Z,31.27
2022-07-28T13:31:11.812Z,30.89
2022-07-28T13:33:41.930Z,31.51
2022-07-28T13:36:11.232Z,31.15
2022-07-28T13:38:41.081Z,29.15
2022-07-28T13:41:10.251Z,30.18
2022-07-28T13:43:41.182Z,28.97
2022-07-28T13:46:17.846Z,28.75
2022-07-28T13:48:58.074Z,29.47
2022-07-28T13:51:29.910Z,28.49
2022-07-28T13:54:03.921Z,28.38
2022-07-28T13:56:33.412Z,28.67
2022-07-28T13:59:07.309Z,27.43
2022-07-28T14:01:38.358Z,27.95
2022-07-28T14:04:10.968Z,27.84
2022-07-28T14:06:46.542Z,28.06
2022-07-28T14:09:18.367Z,28.24
2022-07-28T14:11:53.778Z,29.17
2022-07-28T14:14:25.656Z,28.78
2022-07-28T14:16:55.769Z,28.64
2022-07-28T14:19:39.527Z,28.98
2022-07-28T14:22:13.702Z,29.06
2022-07-28T14:24:43.694Z,28.58
2022-07-28T14:27:13.091Z,28.66
2022-07-28T14:29:43.611Z,28.34
2022-07-28T14:32:12.761Z,28.44
2022-07-28T14:34:41.866Z,28.50
2022-07-28T14:37:11.040Z,28.61
2022-07-28T14:39:40.226Z,29.96
2022-07-28T14:42:10.360Z,29.82
2022-07-28T14:44:39.552Z,29.40
2022-07-28T14:47:10.302Z,28.75
2022-07-28T14:49:58.198Z,29.53
2022-07-28T14:52:29.512Z,27.93
2022-07-28T14:54:58.808Z,29.87
2022-07-28T14:57:50.165Z,29.02
2022-07-28T15:00:19.194Z,30.45
2022-07-28T15:02:51.406Z,29.99
2022-07-28T15:05:21.097Z,28.72
2022-07-28T15:07:52.104Z,29.03
2022-07-28T15:10:21.495Z,30.53
2022-07-28T15:12:51.958Z,30.48
2022-07-28T15:15:26.627Z,30.46
2022-07-28T15:17:57.445Z,28.23
2022-07-28T15:20:26.619Z,29.99
2022-07-28T15:22:55.829Z,29.60
2022-07-28T15:25:25.065Z,27.84
2022-07-28T15:27:54.257Z,30.58
2022-07-28T15:30:23.677Z,29.29
2022-07-28T15:32:57.055Z,29.66
2022-07-28T15:35:28.371Z,30.46
2022-07-28T15:38:17.480Z,30.92
2022-07-28T15:40:48.085Z,31.76
2022-07-28T15:43:19.058Z,30.56
2022-07-28T15:45:55.496Z,31.47
2022-07-28T15:48:24.711Z,30.84
2022-07-28T15:50:55.479Z,30.96
2022-07-28T15:53:25.017Z,32.57
2022-07-28T15:55:54.369Z,31.43
2022-07-28T15:58:26.385Z,35.62
2022-07-28T16:00:56.001Z,32.18
2022-07-28T16:03:28.706Z,34.58
2022-07-28T16:05:59.374Z,34.53
2022-07-28T16:08:28.851Z,33.39
2022-07-28T16:10:58.060Z,34.65
2022-07-28T16:13:36.222Z,32.87
2022-07-28T16:16:10.985Z,32.54
2022-07-28T16:18:44.491Z,32.33
2022-07-28T16:21:15.037Z,32.28
2022-07-28T16:23:44.228Z,32.22
2022-07-28T16:26:13.473Z,30.80
2022-07-28T16:28:42.627Z,31.08
2022-07-28T16:31:16.711Z,31.81
2022-07-28T16:33:46.071Z,32.91
2022-07-28T16:36:16.433Z,31.61
2022-07-28T16:38:45.632Z,32.11
2022-07-28T16:41:16.112Z,32.45
2022-07-28T16:43:45.662Z,32.27
2022-07-28T16:46:15.099Z,33.87
2022-07-28T16:48:44.141Z,35.61
2022-07-28T16:51:13.209Z,32.28
2022-07-28T16:53:43.652Z,34.80
2022-07-28T16:56:17.305Z,31.64
2022-07-28T16:58:46.703Z,30.73
2022-07-28T17:01:15.949Z,32.29
2022-07-28T17:03:48.530Z,32.05
2022-07-28T17:06:17.651Z,31.56
2022-07-28T17:09:03.896Z,32.75
2022-07-28T17:11:33.113Z,31.01
2022-07-28T17:14:05.331Z,31.37
2022-07-28T17:16:37.637Z,30.28
2022-07-28T17:19:18.820Z,31.01
2022-07-28T17:22:12.792Z,32.25
2022-07-28T17:24:55.943Z,31.80
2022-07-28T17:27:37.638Z,31.71
2022-07-28T17:30:09.348Z,31.53
2022-07-28T17:32:38.218Z,31.42
2022-07-28T17:35:31.519Z,32.07
2022-07-28T17:38:00.689Z,32.08
2022-07-28T17:40:31.164Z,31.85
2022-07-28T17:43:00.087Z,33.03
2022-07-28T17:45:29.015Z,33.15
2022-07-28T17:47:58.199Z,32.91
2022-07-28T17:50:27.137Z,32.72
2022-07-28T17:52:56.096Z,33.24
2022-07-28T17:55:57.495Z,34.35
2022-07-28T17:58:32.279Z,34.10
2022-07-28T18:01:10.779Z,34.08
2022-07-28T18:03:59.077Z,34.72
2022-07-28T18:06:32.418Z,34.85
2022-07-28T18:09:06.470Z,35.01
2022-07-28T18:11:57.428Z,35.47
2022-07-28T18:14:30.316Z,35.93
2022-07-28T18:16:59.928Z,35.74
2022-07-28T18:19:30.196Z,36.66
2022-07-28T18:22:01.071Z,36.26
2022-07-28T18:24:30.050Z,37.16
2022-07-28T18:26:59.522Z,37.31
2022-07-28T18:29:38.204Z,36.55
2022-07-28T18:32:09.659Z,38.19
2022-07-28T18:34:40.354Z,37.52
2022-07-28T18:37:09.323Z,38.85
2022-07-28T18:39:38.320Z,39.22
2022-07-28T18:42:07.627Z,39.00
2022-07-28T18:44:38.063Z,39.28
2022-07-28T18:47:07.300Z,38.88
2022-07-28T18:49:37.188Z,39.32
2022-07-28T18:52:08.610Z,39.77
2022-07-28T18:54:37.639Z,40.12
2022-07-28T18:57:06.663Z,39.93
2022-07-28T18:59:40.082Z,40.73
2022-07-28T19:02:26.475Z,41.07
2022-07-28T19:04:55.640Z,41.37
2022-07-28T19:07:24.598Z,42.05
2022-07-28T19:09:53.620Z,41.54
2022-07-28T19:12:24.476Z,42.20
2022-07-28T19:14:54.779Z,43.67
2022-07-28T19:17:26.093Z,43.39
2022-07-28T19:19:56.114Z,44.01
2022-07-28T19:22:26.264Z,44.26
2022-07-28T19:24:55.642Z,44.69
2022-07-28T19:27:24.663Z,45.00
2022-07-28T19:30:01.934Z,45.16
2022-07-28T19:32:30.941Z,45.46
2022-07-28T19:35:00.442Z,45.64
2022-07-28T19:37:29.297Z,45.88
2022-07-28T19:39:58.406Z,46.08
2022-07-28T19:42:29.603Z,46.77
2022-07-28T19:45:00.264Z,47.17
2022-07-28T19:47:29.305Z,47.94
2022-07-28T19:49:58.551Z,47.38
2022-07-28T19:52:28.712Z,47.25
2022-07-28T19:55:00.325Z,47.88
2022-07-28T19:57:29.501Z,48.09
2022-07-28T20:00:02.196Z,48.35
2022-07-28T20:02:31.325Z,47.55
2022-07-28T20:05:00.477Z,48.78
2022-07-28T20:07:29.405Z,48.92
2022-07-28T20:09:58.501Z,48.97
2022-07-28T20:12:30.402Z,48.72
2022-07-28T20:15:03.282Z,49.39
2022-07-28T20:17:38.479Z,49.37
2022-07-28T20:20:11.986Z,49.40
2022-07-28T20:22:41.753Z,49.93
2022-07-28T20:25:13.077Z,49.45
2022-07-28T20:27:43.756Z,49.83
2022-07-28T20:30:23.444Z,49.78
2022-07-28T20:32:54.170Z,50.00
2022-07-28T20:35:23.168Z,50.40
2022-07-28T20:37:52.246Z,50.70
2022-07-28T20:40:24.319Z,50.78
2022-07-28T20:42:56.725Z,50.19
2022-07-28T20:45:27.040Z,50.56
2022-07-28T20:47:56.005Z,51.31
2022-07-28T20:50:25.488Z,51.54
2022-07-28T20:52:54.401Z,51.62
2022-07-28T20:55:23.472Z,51.48
2022-07-28T20:57:55.771Z,51.53
2022-07-28T21:00:27.380Z,51.85
2022-07-28T21:02:59.646Z,51.70
2022-07-28T21:05:35.459Z,52.05
2022-07-28T21:08:09.298Z,52.16
2022-07-28T21:10:45.273Z,52.47
2022-07-28T21:13:20.263Z,52.41
2022-07-28T21:15:50.757Z,52.84
2022-07-28T21:18:19.756Z,53.10
2022-07-28T21:20:49.330Z,53.26
2022-07-28T21:23:18.895Z,53.46
2022-07-28T21:25:48.621Z,53.40
2022-07-28T21:28:34.995Z,53.86
2022-07-28T21:31:05.920Z,54.15
2022-07-28T21:33:35.442Z,54.64
2022-07-28T21:36:04.864Z,54.31
2022-07-28T21:38:33.906Z,54.35
2022-07-28T21:41:02.909Z,54.03
2022-07-28T21:43:32.033Z,54.67
2022-07-28T21:46:01.374Z,54.66
2022-07-28T21:48:33.005Z,54.62
2022-07-28T21:51:01.963Z,54.42
2022-07-28T21:53:30.887Z,54.72
2022-07-28T21:56:01.269Z,55.03
2022-07-28T21:58:30.298Z,55.36
2022-07-28T22:01:02.562Z,55.25
2022-07-28T22:03:33.326Z,55.57
2022-07-28T22:06:02.428Z,54.74
2022-07-28T22:08:31.565Z,55.34
2022-07-28T22:11:01.069Z,56.86
2022-07-28T22:13:30.366Z,55.82
2022-07-28T22:15:59.472Z,56.05
2022-07-28T22:18:28.475Z,55.85
2022-07-28T22:20:58.768Z,55.30
2022-07-28T22:23:29.511Z,55.70
2022-07-28T22:25:58.899Z,55.86
2022-07-28T22:28:29.440Z,56.20
2022-07-28T22:31:08.490Z,55.49
2022-07-28T22:33:39.207Z,55.84
2022-07-28T22:36:10.046Z,56.26
2022-07-28T22:38:39.396Z,55.81
2022-07-28T22:41:09.659Z,56.45
2022-07-28T22:43:39.301Z,56.17
2022-07-28T22:46:10.532Z,56.52
2022-07-28T22:48:39.669Z,57.29
2022-07-28T22:51:12.989Z,57.22
2022-07-28T22:53:42.826Z,57.02
2022-07-28T22:56:12.545Z,57.74
2022-07-28T22:58:41.848Z,57.49
2022-07-28T23:01:10.888Z,57.77
2022-07-28T23:03:40.047Z,57.81
2022-07-28T23:06:09.260Z,58.74
2022-07-28T23:08:39.612Z,58.74
2022-07-28T23:11:08.715Z,59.50
2022-07-28T23:13:37.654Z,59.91
2022-07-28T23:16:10.075Z,60.48
2022-07-28T23:18:40.752Z,60.69
2022-07-28T23:21:10.313Z,60.44
2022-07-28T23:23:40.729Z,60.46
2022-07-28T23:26:09.697Z,60.79
2022-07-28T23:28:40.028Z,61.05
2022-07-28T23:31:09.071Z,61.00
2022-07-28T23:33:56.130Z,60.92
2022-07-28T23:36:27.434Z,60.44
2022-07-28T23:39:00.569Z,61.07
2022-07-28T23:41:29.769Z,61.43
2022-07-28T23:43:58.663Z,61.93
2022-07-28T23:46:27.712Z,62.18
2022-07-28T23:48:56.602Z,61.10
2022-07-28T23:51:46.529Z,62.71
2022-07-28T23:54:16.484Z,62.50
2022-07-28T23:56:45.843Z,62.74
2022-07-28T23:59:17.021Z,62.92
